Latest Weather Observations for Sunshine Coast Airport

IDQ60801

Issued at 11:02 pm EST Friday 7 October 2022 (issued every 10 minutes, with the page automatically refreshed every 10 minutes)

About weather observations | Map of weather stations | Latest weather observations for QLD | Other Formats
Station Details ID: 040861 Name: SUNSHINE COAST AIRPORT Lat: -26.60 Lon: 153.09 Height: 3.42 m
Data from the previous 72 hours. | See also: Recent months at Sunshine Coast Airport
Date/Time
EST
Temp
°C
App
Temp
°C
Dew
Point
°C
Rel
Hum
%
Delta-T
°C
Wind Press
QNH
hPa
Press
MSL
hPa
Rain since
9am
mm
Dir  Spd
km/h
Gust
km/h
Spd
kts
Gust
kts
07/11:00pm 19.7 18.1 16.0 79 2.2 NNE 19 24 10 13 1019.5 1019.4 0.2
07/10:30pm 19.8 18.2 15.9 78 2.3 NNE 19 24 10 13 1019.5 1019.4 0.2
07/10:00pm 20.2 17.3 16.2 78 2.4 NE 26 30 14 16 1019.2 1019.1 0.2
07/09:30pm 19.8 18.8 16.6 82 1.9 NE 17 24 9 13 1019.6 1019.5 0.2
07/09:00pm 19.3 20.3 16.3 83 1.8 ENE 6 7 3 4 1019.6 1019.5 0.0
07/08:30pm 20.0 19.1 15.8 77 2.5 NNE 15 22 8 12 1019.8 1019.7 0.0
07/08:00pm 20.2 19.0 16.2 78 2.4 NNE 17 24 9 13 1019.7 1019.6 0.0
07/07:30pm 20.4 19.2 16.0 76 2.6 NE 17 22 9 12 1019.4 1019.3 0.0
07/07:00pm 20.5 19.8 16.5 78 2.4 NE 15 20 8 11 1019.1 1019.0 0.0
07/06:30pm 20.5 19.3 16.1 76 2.6 NE 17 22 9 12 1018.8 1018.7 0.0
07/06:00pm 20.3 18.7 15.9 76 2.6 NE 19 22 10 12 1018.4 1018.3 0.0
07/05:30pm 20.5 19.2 15.9 75 2.7 ENE 17 19 9 10 1018.3 1018.2 0.0
07/05:00pm 20.9 19.6 15.9 73 3.0 NE 17 20 9 11 1018.0 1017.9 0.0
07/04:30pm 21.6 21.2 16.3 72 3.2 E 13 15 7 8 1017.8 1017.7 0.0
07/04:00pm 21.3 21.4 15.4 69 3.5 E 9 13 5 7 1017.9 1017.8 0.0
07/03:30pm 20.9 21.3 15.4 71 3.3 E 7 11 4 6 1017.9 1017.8 0.0
07/03:00pm 21.2 18.3 16.2 73 3.0 NNE 26 33 14 18 1018.0 1017.9 0.0
07/02:30pm 22.8 21.2 15.9 65 4.2 NE 19 22 10 12 1018.1 1018.0 0.0
07/02:00pm 23.4 21.4 14.9 59 5.0 NE 19 22 10 12 1018.5 1018.4 0.0
07/01:30pm 23.7 21.7 14.9 57 5.2 NE 19 22 10 12 1018.8 1018.7 0.0
07/01:00pm 23.5 21.2 14.2 56 5.5 NE 19 24 10 13 1018.9 1018.8 0.0
07/12:30pm 23.5 21.3 14.8 58 5.2 ENE 20 24 11 13 1018.9 1018.8 0.0
07/12:00pm 23.6 21.5 15.1 59 5.1 ENE 20 26 11 14 1019.4 1019.3 0.0
07/11:30am 23.9 21.7 14.9 57 5.4 NE 20 26 11 14 1020.1 1020.0 0.0
07/11:00am 23.7 21.7 15.5 60 4.9 ENE 20 28 11 15 1020.6 1020.5 0.0
07/10:30am 23.5 21.5 15.5 60 4.8 ENE 20 24 11 13 1020.9 1020.8 0.0
07/10:00am 23.6 22.2 15.6 61 4.8 ENE 17 22 9 12 1021.3 1021.2 0.0
07/09:30am 22.9 21.5 14.5 59 5.0 ENE 15 20 8 11 1021.6 1021.5 0.0
07/09:00am 22.3 20.7 14.9 63 4.4 E 17 20 9 11 1021.5 1021.4 0.4
07/08:30am 21.6 22.4 17.4 77 2.6 ENE 9 13 5 7 1021.2 1021.1 0.4
07/08:00am 18.4 19.5 17.1 92 0.8 WSW 7 9 4 5 1021.2 1021.1 0.4
07/07:30am 17.3 18.2 16.5 95 0.5 SW 7 9 4 5 1021.0 1020.9 0.4
07/07:00am 16.5 16.8 15.9 96 0.4 WSW 9 11 5 6 1020.8 1020.7 0.4
07/06:30am 15.9 16.3 15.4 97 0.3 WSW 7 9 4 5 1020.5 1020.4 0.4
07/06:00am 15.1 15.3 14.6 97 0.3 SW 7 9 4 5 1020.5 1020.4 0.4
07/05:30am 14.1 14.1 13.5 96 0.3 WSW 6 9 3 5 1020.0 1019.9 0.4
07/05:00am 14.5 14.0 13.9 96 0.3 W 9 11 5 6 1019.7 1019.6 0.4
07/04:30am 14.6 14.5 14.0 96 0.3 W 7 11 4 6 1019.4 1019.3 0.4
07/04:00am 15.2 16.3 14.6 96 0.3 WSW 2 9 1 5 1019.4 1019.3 0.4
07/03:30am 15.3 15.5 14.7 96 0.3 WSW 7 9 4 5 1019.3 1019.2 0.4
07/03:00am 15.5 16.3 14.7 95 0.5 WSW 4 7 2 4 1019.4 1019.3 0.4
07/02:30am 15.8 16.3 15.0 95 0.5 W 6 7 3 4 1019.5 1019.4 0.4
07/02:00am 15.7 16.1 14.7 94 0.6 W 6 9 3 5 1019.9 1019.8 0.4
07/01:30am 16.4 16.5 15.4 94 0.6 W 9 11 5 6 1020.2 1020.1 0.2
07/01:00am 16.9 17.2 15.9 94 0.6 WSW 9 13 5 7 1020.7 1020.6 0.2
07/12:30am 16.9 17.2 15.9 94 0.6 SW 9 11 5 6 1020.9 1020.8 0.2
07/12:00am 16.7 17.3 15.7 94 0.6 SW 7 9 4 5 1021.2 1021.1 0.2
 
Date/Time
EST
Temp
°C
App
Temp
°C
Dew
Point
°C
Rel
Hum
%
Delta-T
°C
Wind Press
QNH
hPa
Press
MSL
hPa
Rain since
9am
mm
Dir  Spd
km/h
Gust
km/h
Spd
kts
Gust
kts
06/11:30pm 16.7 16.9 15.7 94 0.6 SW 9 15 5 8 1021.5 1021.4 0.2
06/11:00pm 16.5 16.2 15.5 94 0.6 WSW 11 15 6 8 1021.6 1021.5 0.2
06/10:30pm 16.8 17.4 15.7 93 0.6 WNW 7 9 4 5 1021.8 1021.7 0.2
06/10:00pm 17.3 18.1 16.3 94 0.6 NW 7 11 4 6 1022.0 1021.9 0.2
06/09:30pm 17.3 17.3 16.2 93 0.7 NNW 11 13 6 7 1022.2 1022.1 0.2
06/09:00pm 17.4 16.6 16.1 92 0.8 N 15 20 8 11 1022.2 1022.1 0.2
06/08:56pm 17.4 16.2 16.1 92 0.8 N 17 20 9 11 1022.2 1022.1 0.2
06/08:31pm 18.6 16.2 16.4 87 1.3 E 24 33 13 18 1022.4 1022.3 0.2
06/08:30pm 18.7 16.3 16.3 86 1.4 E 24 33 13 18 1022.3 1022.2 0.0
06/08:00pm 20.2 19.5 15.4 74 2.8 NE 13 15 7 8 1022.0 1021.9 0.0
06/07:30pm 20.0 19.1 14.8 72 3.0 ENE 13 17 7 9 1021.7 1021.6 0.0
06/07:00pm 19.9 19.2 15.3 75 2.7 ENE 13 19 7 10 1021.1 1021.0 0.0
06/06:30pm 19.9 19.2 15.5 76 2.6 E 13 17 7 9 1020.8 1020.7 0.0
06/06:00pm 19.8 18.7 15.4 76 2.6 ENE 15 17 8 9 1020.6 1020.5 0.0
06/05:30pm 20.2 19.7 15.8 76 2.6 ENE 13 17 7 9 1020.4 1020.3 0.0
06/05:00pm 20.6 19.3 15.8 74 2.9 ENE 17 20 9 11 1020.0 1019.9 0.0
06/04:30pm 20.9 19.6 15.7 72 3.1 ENE 17 20 9 11 1019.7 1019.6 0.0
06/04:00pm 21.3 21.0 16.5 74 2.9 E 13 17 7 9 1019.8 1019.7 0.0
06/03:30pm 21.4 21.1 16.4 73 3.0 E 13 17 7 9 1019.7 1019.6 0.0
06/03:00pm 21.5 21.0 15.8 70 3.4 E 13 19 7 10 1019.7 1019.6 0.0
06/02:30pm 21.5 20.7 16.2 72 3.2 E 15 19 8 10 1019.7 1019.6 0.0
06/02:00pm 21.5 20.8 15.3 68 3.7 E 13 15 7 8 1020.1 1020.0 0.0
06/01:30pm 22.1 21.7 16.1 69 3.6 E 13 17 7 9 1020.3 1020.2 0.0
06/01:00pm 22.1 21.1 15.7 67 3.8 E 15 20 8 11 1020.7 1020.6 0.0
06/12:30pm 22.1 21.5 15.7 67 3.8 ESE 13 19 7 10 1021.1 1021.0 0.0
06/12:00pm 21.5 20.9 15.6 69 3.5 SE 13 15 7 8 1021.5 1021.4 0.0
06/11:30am 21.1 20.1 14.7 67 3.8 SE 13 15 7 8 1021.9 1021.8 0.0
06/11:00am 21.2 20.7 16.0 72 3.1 SE 13 19 7 10 1022.3 1022.2 0.0
06/10:30am 20.7 20.3 16.3 76 2.6 SSE 13 17 7 9 1022.5 1022.4 0.0
06/10:00am 20.4 20.2 15.6 74 2.8 S 11 17 6 9 1022.6 1022.5 0.0
06/09:30am 19.9 20.4 15.5 76 2.6 SSE 7 11 4 6 1022.6 1022.5 0.0
06/09:00am 19.4 19.3 15.9 80 2.1 S 11 15 6 8 1022.6 1022.5 2.2
06/08:30am 18.9 18.1 16.1 84 1.7 SSW 15 19 8 10 1022.6 1022.5 2.2
06/08:00am 18.4 17.6 16.0 86 1.4 S 15 19 8 10 1022.6 1022.5 2.2
06/07:30am 18.1 17.1 16.6 91 0.9 SSW 17 20 9 11 1022.7 1022.6 2.2
06/07:00am 17.6 16.7 15.9 90 1.0 S 15 19 8 10 1022.4 1022.3 2.2
06/06:30am 17.0 16.5 15.9 93 0.6 SSW 13 19 7 10 1022.2 1022.1 2.2
06/06:00am 16.6 15.6 15.6 94 0.6 SW 15 17 8 9 1021.9 1021.8 2.2
06/05:30am 16.6 16.1 15.8 95 0.5 SW 13 17 7 9 1021.6 1021.5 2.2
06/05:00am 16.6 16.1 15.8 95 0.5 SW 13 19 7 10 1021.2 1021.1 2.2
06/04:30am 16.3 16.4 15.5 95 0.5 NW 9 13 5 7 1020.9 1020.8 1.8
06/04:00am 16.4 16.5 15.6 95 0.5 W 9 13 5 7 1020.6 1020.5 1.8
06/03:30am 16.3 16.8 15.5 95 0.5 WSW 7 11 4 6 1020.4 1020.3 1.8
06/03:00am 16.4 16.5 15.6 95 0.5 WSW 9 13 5 7 1020.3 1020.2 1.8
06/02:30am 16.4 15.8 15.6 95 0.5 SW 13 15 7 8 1020.5 1020.4 1.8
06/02:00am 16.3 16.0 15.5 95 0.5 WSW 11 13 6 7 1020.8 1020.7 1.8
06/01:30am 16.4 16.2 15.6 95 0.5 SW 11 15 6 8 1021.4 1021.3 1.8
06/01:00am 16.4 16.2 15.6 95 0.5 W 11 13 6 7 1021.8 1021.7 1.8
06/12:30am 16.6 16.4 15.6 94 0.6 SW 11 15 6 8 1022.2 1022.1 1.8
06/12:00am 16.7 16.5 15.6 93 0.6 SW 11 15 6 8 1022.3 1022.2 1.8
 
Date/Time
EST
Temp
°C
App
Temp
°C
Dew
Point
°C
Rel
Hum
%
Delta-T
°C
Wind Press
QNH
hPa
Press
MSL
hPa
Rain since
9am
mm
Dir  Spd
km/h
Gust
km/h
Spd
kts
Gust
kts
05/11:30pm 16.8 16.5 15.5 92 0.8 WSW 11 13 6 7 1022.5 1022.4 1.8
05/11:00pm 16.7 17.1 15.4 92 0.8 SW 7 13 4 7 1022.7 1022.6 1.8
05/10:30pm 18.8 17.0 14.5 76 2.5 ENE 17 24 9 13 1022.7 1022.6 1.8
05/10:00pm 17.6 16.1 15.4 87 1.3 ENE 17 20 9 11 1023.0 1022.9 1.8
05/09:30pm 16.8 16.2 15.7 93 0.6 WSW 13 15 7 8 1023.2 1023.1 1.4
05/09:00pm 16.7 17.1 15.4 92 0.8 NNW 7 17 4 9 1023.3 1023.2 1.4
05/08:30pm 17.5 17.5 15.3 87 1.3 ENE 9 15 5 8 1023.4 1023.3 1.4
05/08:00pm 17.0 16.3 15.5 91 0.9 SW 13 17 7 9 1022.9 1022.8 1.4
05/07:30pm 17.7 17.3 15.1 85 1.5 SE 11 15 6 8 1022.6 1022.5 1.4
05/07:00pm 17.1 16.9 15.6 91 0.9 SSE 11 15 6 8 1022.4 1022.3 1.2
05/06:30pm 17.5 16.5 15.7 89 1.1 SE 15 19 8 10 1022.5 1022.4 1.2
05/06:00pm 17.5 16.8 15.3 87 1.3 SSE 13 19 7 10 1022.0 1021.9 1.2
05/05:30pm 17.5 16.6 15.8 90 1.0 S 15 19 8 10 1022.2 1022.1 1.2
05/05:00pm 18.2 19.7 15.6 85 1.5 ENE 2 9 1 5 1021.4 1021.3 1.2
05/04:43pm 17.9 18.5 15.3 85 1.5 ENE 6 9 3 5 1021.4 1021.3 1.2
05/04:32pm 17.9 17.8 15.0 83 1.7 E 9 13 5 7 1021.2 1021.1 1.2
05/04:30pm 18.0 18.0 15.1 83 1.7 E 9 13 5 7 1021.1 1021.0 1.2
05/04:00pm 19.3 19.5 14.6 74 2.7 SW 7 9 4 5 1021.2 1021.1 1.0
05/03:30pm 19.4 20.0 15.7 79 2.2 W 7 11 4 6 1021.1 1021.0 1.0
05/03:00pm 19.0 19.6 15.9 82 1.8 NW 7 11 4 6 1021.3 1021.2 1.0
05/02:30pm 18.1 17.0 15.2 83 1.7 NNE 15 19 8 10 1021.5 1021.4 1.0
05/02:25pm 18.2 16.9 15.8 86 1.4 N 17 22 9 12 1021.6 1021.5 1.0
05/02:08pm 17.5 16.6 14.8 84 1.6 NE 13 24 7 13 1021.6 1021.5 1.0
05/02:00pm 17.8 17.7 14.9 83 1.7 N 9 15 5 8 1021.7 1021.6 1.0
05/01:42pm 18.0 19.7 16.2 89 1.1 NNE 2 7 1 4 1022.0 1021.9 1.0
05/01:30pm 17.5 18.2 15.5 88 1.2 ENE 6 7 3 4 1022.1 1022.0 1.0
05/01:00pm 18.4 18.4 15.3 82 1.8 SE 9 15 5 8 1022.3 1022.2 0.2
05/12:58pm 18.4 18.0 15.1 81 1.9 SSE 11 15 6 8 1022.3 1022.2 0.2
05/12:30pm 20.1 18.7 14.5 70 3.3 S 15 19 8 10 1022.4 1022.3 0.0
05/12:00pm 19.6 17.3 14.0 70 3.2 SE 19 24 10 13 1022.7 1022.6 0.0
05/11:30am 20.4 18.7 14.7 70 3.3 SE 17 30 9 16 1022.9 1022.8 0.0
05/11:00am 21.2 19.2 13.9 63 4.2 SE 17 20 9 11 1023.0 1022.9 0.0
05/10:30am 21.3 19.2 13.7 62 4.4 SE 17 20 9 11 1023.4 1023.3 0.0
05/10:00am 21.8 19.6 13.4 59 4.8 SE 17 20 9 11 1023.3 1023.2 0.0
05/09:30am 21.8 19.2 12.1 54 5.5 SE 17 20 9 11 1023.5 1023.4 0.0
05/09:00am 20.8 19.0 13.3 62 4.3 SE 15 22 8 12 1023.4 1023.3 0.0
05/08:30am 20.1 18.9 12.8 63 4.1 SSE 11 15 6 8 1023.6 1023.5 0.0
05/08:00am 19.5 18.0 13.2 67 3.6 S 13 17 7 9 1023.3 1023.2 0.0
05/07:30am 18.6 17.2 13.5 72 2.9 SSW 13 19 7 10 1023.4 1023.3 0.0
05/07:00am 15.4 15.1 13.4 88 1.1 WSW 7 9 4 5 1023.2 1023.1 0.0
05/06:30am 13.1 12.5 12.3 95 0.4 SW 7 9 4 5 1022.9 1022.8 0.0
05/06:00am 11.5 10.7 10.9 96 0.3 W 6 7 3 4 1022.7 1022.6 0.0
05/05:30am 10.7 9.0 9.9 95 0.4 WNW 9 9 5 5 1022.5 1022.4 0.0
05/05:00am 10.6 9.3 9.8 95 0.4 W 7 9 4 5 1022.0 1021.9 0.0
05/04:30am 10.9 9.6 10.1 95 0.4 W 7 7 4 4 1021.6 1021.5 0.0
05/04:00am 11.1 10.1 10.3 95 0.4 WSW 6 7 3 4 1021.5 1021.4 0.0
05/03:30am 11.2 10.2 10.4 95 0.4 WSW 6 7 3 4 1021.4 1021.3 0.0
05/03:00am 11.1 9.9 10.2 94 0.5 WSW 7 7 4 4 1021.2 1021.1 0.0
05/02:30am 11.3 10.1 10.4 94 0.5 W 7 9 4 5 1021.3 1021.2 0.0
05/02:00am 11.5 10.6 10.6 94 0.5 W 6 9 3 5 1021.3 1021.2 0.0
05/01:30am 11.5 10.4 10.6 94 0.5 W 7 9 4 5 1021.4 1021.3 0.0
05/01:00am 11.8 10.9 10.7 93 0.6 WNW 6 9 3 5 1021.4 1021.3 0.0
05/12:30am 12.2 11.4 10.9 92 0.7 W 6 7 3 4 1021.8 1021.7 0.0
05/12:00am 12.5 11.4 10.7 89 0.9 W 7 9 4 5 1022.0 1021.9 0.0
 
Date/Time
EST
Temp
°C
App
Temp
°C
Dew
Point
°C
Rel
Hum
%
Delta-T
°C
Wind Press
QNH
hPa
Press
MSL
hPa
Rain since
9am
mm
Dir  Spd
km/h
Gust
km/h
Spd
kts
Gust
kts
04/11:30pm 13.3 12.7 11.7 90 0.9 WSW 6 7 3 4 1022.3 1022.2 0.0

Other formats

Comma delimited format used in spreadsheet applications
http://www.bom.gov.au/fwo/IDQ60801/IDQ60801.94569.axf

JavaScript Object Notation format (JSON) in row-major order
http://www.bom.gov.au/fwo/IDQ60801/IDQ60801.94569.json

Data quality

Most of these data are generated automatically and are frequently updated. Quality checks on data are not normally performed. It is possible for incorrect values to appear. Refer to information at About Latest Weather Observations and please check the disclaimer before using these data.